DWI6427 SACO-MDPC
Flight info
| Callsign | DWI6427 |
|---|---|
| Flight time | 5h 33m |
| Altitude | 33000 |
| Route | LOGET1C LOGET UZ112 PUBUM DCT VIR/N0466F350 UL322 NILSO DCT UDIDI DCT ILKOD DCT VUMPI/N0461F370 DCT VUTGI/N0460F360 UM417 CBC UL304 BEGAB/N0457F380 UL304 AGMEX UL216 POKAK POKAK1C |
| Aircraft | B38M/M-SDE1FGHILORVWXY/HB1 |
Departure
| Time | 2026-04-27 22:47 |
|---|---|
| Airport | Ingeniero Aeronáutico Ambrosio L.V. Taravella International Airport (SACO) |
Arrival
| Time | 2026-04-28 04:21 |
|---|---|
| Airport | Punta Cana International Airport (MDPC) |
| Time | Latitude | Longitude | Altitude | Speed | Heading |
|---|---|---|---|---|---|
| 2026-04-27 22:19 | -31.31487 | -64.21179 | 1615 ft | 0 kts | 262° |
| 2026-04-27 22:39 | -31.31485 | -64.21161 | 1623 ft | 4 kts | 263° |
| 2026-04-27 22:39 | -31.31482 | -64.21130 | 1618 ft | 4 kts | 263° |
| 2026-04-27 22:39 | -31.31477 | -64.21099 | 1621 ft | 4 kts | 248° |
| 2026-04-27 22:40 | -31.31464 | -64.21080 | 1618 ft | 3 kts | 186° |
| 2026-04-27 22:40 | -31.31461 | -64.21080 | 1617 ft | 2 kts | 181° |
| 2026-04-27 22:43 | -31.31464 | -64.21080 | 1618 ft | 1 kts | 181° |
| 2026-04-27 22:43 | -31.31485 | -64.21080 | 1620 ft | 5 kts | 182° |
| 2026-04-27 22:43 | -31.31535 | -64.21083 | 1618 ft | 10 kts | 191° |
| 2026-04-27 22:44 | -31.31611 | -64.21101 | 1620 ft | 11 kts | 180° |
| 2026-04-27 22:44 | -31.31687 | -64.21102 | 1618 ft | 11 kts | 179° |
| 2026-04-27 22:44 | -31.31744 | -64.21073 | 1615 ft | 9 kts | 136° |
| 2026-04-27 22:44 | -31.31799 | -64.21030 | 1618 ft | 11 kts | 164° |
| 2026-04-27 22:45 | -31.31882 | -64.21028 | 1621 ft | 13 kts | 180° |
| 2026-04-27 22:45 | -31.31983 | -64.21026 | 1618 ft | 16 kts | 178° |
| 2026-04-27 22:45 | -31.32099 | -64.21024 | 1620 ft | 18 kts | 179° |
| 2026-04-27 22:45 | -31.32234 | -64.21021 | 1618 ft | 22 kts | 179° |
| 2026-04-27 22:46 | -31.32371 | -64.21016 | 1621 ft | 18 kts | 168° |
| 2026-04-27 22:46 | -31.32436 | -64.20924 | 1619 ft | 16 kts | 92° |
| 2026-04-27 22:46 | -31.32360 | -64.20819 | 1617 ft | 12 kts | 11° |
| 2026-04-27 22:46 | -31.32244 | -64.20818 | 1619 ft | 36 kts | 360° |
| 2026-04-27 22:47 | -31.31752 | -64.20827 | 1621 ft | 103 kts | 359° |
| 2026-04-27 22:47 | -31.30833 | -64.20843 | 1619 ft | 159 kts | 359° |
| 2026-04-27 22:47 | -31.29593 | -64.20849 | 1785 ft | 190 kts | 1° |
| 2026-04-27 22:47 | -31.28234 | -64.20797 | 2476 ft | 198 kts | 5° |
| 2026-04-27 22:48 | -31.26847 | -64.20794 | 3173 ft | 208 kts | 359° |
| 2026-04-27 22:48 | -31.25359 | -64.20854 | 3776 ft | 217 kts | 359° |
| 2026-04-27 22:48 | -31.23798 | -64.20901 | 4228 ft | 231 kts | 359° |
| 2026-04-27 22:48 | -31.22134 | -64.20942 | 4634 ft | 247 kts | 359° |
| 2026-04-27 22:49 | -31.20356 | -64.21069 | 5011 ft | 263 kts | 346° |
| 2026-04-27 22:49 | -31.18732 | -64.22009 | 5676 ft | 258 kts | 321° |
| 2026-04-27 22:49 | -31.17317 | -64.23256 | 6497 ft | 256 kts | 320° |
| 2026-04-27 22:49 | -31.15882 | -64.24538 | 7133 ft | 261 kts | 320° |
| 2026-04-27 22:50 | -31.14454 | -64.25827 | 8018 ft | 258 kts | 319° |
| 2026-04-27 22:50 | -31.13007 | -64.27148 | 8575 ft | 270 kts | 318° |
| 2026-04-27 22:50 | -31.11509 | -64.28520 | 9043 ft | 282 kts | 318° |
| 2026-04-27 22:50 | -31.09973 | -64.29930 | 9912 ft | 279 kts | 317° |
| 2026-04-27 22:51 | -31.08445 | -64.31337 | 10597 ft | 283 kts | 317° |
| 2026-04-27 22:51 | -31.06858 | -64.32796 | 10929 ft | 298 kts | 317° |
| 2026-04-27 22:51 | -31.05188 | -64.34332 | 11195 ft | 314 kts | 317° |
| 2026-04-27 22:51 | -31.03422 | -64.35956 | 11440 ft | 331 kts | 317° |
| 2026-04-27 22:52 | -31.01418 | -64.37380 | 11772 ft | 349 kts | 335° |
| 2026-04-27 22:52 | -30.99007 | -64.37933 | 12384 ft | 360 kts | 353° |
| 2026-04-27 22:52 | -30.96472 | -64.38004 | 12906 ft | 367 kts | 353° |
| 2026-04-27 22:52 | -30.93919 | -64.38073 | 13541 ft | 368 kts | 353° |
| 2026-04-27 22:53 | -30.91337 | -64.38139 | 14016 ft | 375 kts | 353° |
| 2026-04-27 22:53 | -30.88710 | -64.38205 | 14537 ft | 376 kts | 353° |
| 2026-04-27 22:53 | -30.86084 | -64.38268 | 15100 ft | 379 kts | 353° |
| 2026-04-27 22:53 | -30.83430 | -64.38333 | 15586 ft | 382 kts | 353° |
| 2026-04-27 22:54 | -30.80759 | -64.38397 | 16095 ft | 385 kts | 353° |
| 2026-04-27 22:54 | -30.78112 | -64.38460 | 16563 ft | 387 kts | 353° |
| 2026-04-27 22:54 | -30.75374 | -64.38524 | 17072 ft | 390 kts | 353° |
| 2026-04-27 22:54 | -30.72647 | -64.38589 | 17562 ft | 393 kts | 353° |
| 2026-04-27 22:55 | -30.69929 | -64.38654 | 18026 ft | 396 kts | 353° |
| 2026-04-27 22:55 | -30.67173 | -64.38719 | 18481 ft | 399 kts | 353° |
| 2026-04-27 22:55 | -30.64388 | -64.38785 | 18882 ft | 401 kts | 353° |
| 2026-04-27 22:55 | -30.61595 | -64.38851 | 19316 ft | 403 kts | 353° |
| 2026-04-27 22:56 | -30.58778 | -64.38878 | 19696 ft | 409 kts | 358° |
| 2026-04-27 22:56 | -30.55952 | -64.38195 | 20122 ft | 421 kts | 16° |
| 2026-04-27 22:56 | -30.53336 | -64.36574 | 20514 ft | 432 kts | 33° |
| 2026-04-27 22:56 | -30.50985 | -64.34368 | 20911 ft | 436 kts | 36° |
| 2026-04-27 22:57 | -30.48618 | -64.32130 | 21288 ft | 439 kts | 36° |
| 2026-04-27 22:57 | -30.46249 | -64.29876 | 21683 ft | 442 kts | 36° |
| 2026-04-27 22:57 | -30.43873 | -64.27610 | 22089 ft | 444 kts | 36° |
| 2026-04-27 22:57 | -30.41377 | -64.25510 | 22460 ft | 441 kts | 24° |
| 2026-04-27 22:58 | -30.38559 | -64.24228 | 22832 ft | 433 kts | 7° |
| 2026-04-27 22:58 | -30.35584 | -64.23845 | 23116 ft | 429 kts | 355° |
| 2026-04-27 22:58 | -30.32620 | -64.23793 | 23496 ft | 431 kts | 354° |
| 2026-04-27 22:58 | -30.29610 | -64.23812 | 23833 ft | 433 kts | 353° |
| 2026-04-27 22:59 | -30.26596 | -64.23874 | 24185 ft | 434 kts | 353° |
| 2026-04-27 22:59 | -30.23564 | -64.23957 | 24546 ft | 435 kts | 352° |
| 2026-04-27 22:59 | -30.20524 | -64.24049 | 24880 ft | 436 kts | 352° |
| 2026-04-27 22:59 | -30.17522 | -64.24143 | 25213 ft | 438 kts | 352° |
| 2026-04-27 23:00 | -30.11367 | -64.24341 | 25880 ft | 441 kts | 352° |
| 2026-04-27 23:00 | -30.08329 | -64.24440 | 26212 ft | 442 kts | 351° |
| 2026-04-27 23:00 | -30.05248 | -64.24541 | 26534 ft | 444 kts | 351° |
| 2026-04-27 23:01 | -30.02150 | -64.24642 | 26838 ft | 446 kts | 351° |
| 2026-04-27 23:01 | -29.99039 | -64.24743 | 27149 ft | 447 kts | 351° |
| 2026-04-27 23:01 | -29.95924 | -64.24845 | 27444 ft | 449 kts | 351° |
| 2026-04-27 23:01 | -29.92799 | -64.24947 | 27752 ft | 450 kts | 351° |
| 2026-04-27 23:02 | -29.89651 | -64.25049 | 28055 ft | 452 kts | 351° |
| 2026-04-27 23:02 | -29.86504 | -64.25152 | 28343 ft | 453 kts | 350° |
| 2026-04-27 23:02 | -29.83346 | -64.25255 | 28641 ft | 455 kts | 350° |
| 2026-04-27 23:02 | -29.80174 | -64.25358 | 28921 ft | 456 kts | 350° |
| 2026-04-27 23:03 | -29.77013 | -64.25461 | 29219 ft | 458 kts | 350° |
| 2026-04-27 23:03 | -29.73802 | -64.25566 | 29504 ft | 459 kts | 349° |
| 2026-04-27 23:03 | -29.70645 | -64.25668 | 29780 ft | 460 kts | 349° |
| 2026-04-27 23:03 | -29.67394 | -64.25773 | 30049 ft | 462 kts | 349° |
| 2026-04-27 23:04 | -29.64230 | -64.25876 | 30295 ft | 463 kts | 349° |
| 2026-04-27 23:04 | -29.60997 | -64.25981 | 30502 ft | 464 kts | 348° |
| 2026-04-27 23:04 | -29.57772 | -64.26085 | 30768 ft | 464 kts | 348° |
| 2026-04-27 23:04 | -29.54552 | -64.26189 | 31084 ft | 463 kts | 347° |
| 2026-04-27 23:05 | -29.51324 | -64.26294 | 31413 ft | 461 kts | 347° |
| 2026-04-27 23:05 | -29.48136 | -64.26397 | 31734 ft | 459 kts | 347° |
| 2026-04-27 23:05 | -29.44935 | -64.26500 | 32044 ft | 458 kts | 347° |
| 2026-04-27 23:05 | -29.41767 | -64.26602 | 32366 ft | 456 kts | 346° |
| 2026-04-27 23:06 | -29.38589 | -64.26704 | 32662 ft | 455 kts | 346° |
| 2026-04-27 23:06 | -29.35436 | -64.26806 | 32949 ft | 453 kts | 346° |
| 2026-04-27 23:06 | -29.32275 | -64.26908 | 33127 ft | 453 kts | 346° |
| 2026-04-27 23:06 | -29.29127 | -64.27008 | 33122 ft | 451 kts | 345° |
| 2026-04-27 23:07 | -29.22890 | -64.27209 | 33121 ft | 451 kts | 345° |
| 2026-04-27 23:07 | -29.16626 | -64.27410 | 33122 ft | 451 kts | 345° |
| 2026-04-27 23:08 | -29.10330 | -64.27612 | 33124 ft | 451 kts | 346° |
| 2026-04-27 23:08 | -29.04049 | -64.27813 | 33127 ft | 452 kts | 345° |
| 2026-04-27 23:09 | -28.97763 | -64.28014 | 33125 ft | 452 kts | 346° |
| 2026-04-27 23:09 | -28.91510 | -64.28400 | 33135 ft | 446 kts | 342° |
| 2026-04-27 23:10 | -28.85304 | -64.28902 | 33135 ft | 455 kts | 347° |
| 2026-04-27 23:10 | -28.78969 | -64.28950 | 33128 ft | 455 kts | 347° |
| 2026-04-27 23:11 | -28.72611 | -64.29026 | 33129 ft | 456 kts | 347° |
| 2026-04-27 23:11 | -28.66304 | -64.29106 | 33142 ft | 456 kts | 347° |
| 2026-04-27 23:12 | -28.59944 | -64.29188 | 33130 ft | 456 kts | 347° |
| 2026-04-27 23:12 | -28.53585 | -64.29270 | 33129 ft | 457 kts | 347° |
| 2026-04-27 23:13 | -28.47248 | -64.29352 | 33134 ft | 458 kts | 347° |
| 2026-04-27 23:13 | -28.40893 | -64.29435 | 33136 ft | 458 kts | 347° |
| 2026-04-27 23:14 | -28.34490 | -64.29517 | 33139 ft | 458 kts | 347° |
| 2026-04-27 23:14 | -28.28115 | -64.29599 | 33138 ft | 458 kts | 347° |
| 2026-04-27 23:15 | -28.21743 | -64.29681 | 33138 ft | 458 kts | 347° |
| 2026-04-27 23:15 | -28.15399 | -64.29763 | 33141 ft | 458 kts | 347° |
| 2026-04-27 23:16 | -28.08998 | -64.29845 | 33141 ft | 458 kts | 347° |
| 2026-04-27 23:16 | -28.02668 | -64.29930 | 33060 ft | 457 kts | 347° |
| 2026-04-27 23:17 | -27.99489 | -64.29981 | 32789 ft | 459 kts | 347° |
| 2026-04-27 23:17 | -27.96263 | -64.30056 | 32566 ft | 468 kts | 347° |
| 2026-04-27 23:17 | -27.93004 | -64.30154 | 32741 ft | 467 kts | 346° |
| 2026-04-27 23:17 | -27.89780 | -64.30215 | 33215 ft | 464 kts | 348° |
| 2026-04-27 23:18 | -27.86557 | -64.30188 | 33104 ft | 458 kts | 348° |
| 2026-04-27 23:18 | -27.83382 | -64.30199 | 33141 ft | 456 kts | 347° |
| 2026-04-27 23:18 | -27.77038 | -64.30238 | 33122 ft | 460 kts | 351° |
| 2026-04-27 23:19 | -27.73804 | -64.29627 | 33130 ft | 480 kts | 3° |
| 2026-04-27 23:19 | -27.70572 | -64.28718 | 33119 ft | 480 kts | 2° |
| 2026-04-27 23:19 | -27.62192 | -64.26358 | 33124 ft | 481 kts | 2° |
| 2026-04-27 23:20 | -27.49214 | -64.22731 | 33136 ft | 479 kts | 2° |
| 2026-04-27 23:20 | -27.36257 | -64.19046 | 33138 ft | 481 kts | 3° |
| 2026-04-27 23:21 | -27.23330 | -64.15401 | 33139 ft | 481 kts | 2° |
| 2026-04-27 23:21 | -27.11583 | -64.12075 | 33138 ft | 481 kts | 2° |
| 2026-04-27 23:22 | -27.05109 | -64.10275 | 33138 ft | 480 kts | 2° |
| 2026-04-27 23:22 | -26.98632 | -64.08460 | 33142 ft | 480 kts | 2° |
| 2026-04-27 23:23 | -26.95402 | -64.07969 | 33139 ft | 456 kts | 348° |
| 2026-04-27 23:23 | -26.92237 | -64.07959 | 33130 ft | 458 kts | 349° |
| 2026-04-27 23:23 | -26.86380 | -64.07883 | 33143 ft | 458 kts | 349° |
| 2026-04-27 23:24 | -26.71577 | -64.07843 | 33141 ft | 458 kts | 349° |
| 2026-04-27 23:24 | -26.60958 | -64.07786 | 33139 ft | 459 kts | 349° |
| 2026-04-27 23:25 | -26.48190 | -64.07718 | 33145 ft | 459 kts | 349° |
| 2026-04-27 23:25 | -26.35445 | -64.07673 | 33144 ft | 458 kts | 349° |
| 2026-04-27 23:26 | -26.22776 | -64.07620 | 33144 ft | 457 kts | 349° |
| 2026-04-27 23:26 | -26.10022 | -64.07558 | 33144 ft | 459 kts | 350° |
| 2026-04-27 23:27 | -25.97259 | -64.07501 | 33156 ft | 458 kts | 349° |
| 2026-04-27 23:27 | -25.84503 | -64.07470 | 33152 ft | 458 kts | 350° |
| 2026-04-27 23:28 | -25.69698 | -64.07400 | 33154 ft | 458 kts | 351° |
| 2026-04-27 23:28 | -25.59793 | -64.07344 | 33251 ft | 455 kts | 349° |
| 2026-04-27 23:29 | -25.52361 | -64.07317 | 33173 ft | 451 kts | 350° |
| 2026-04-27 23:29 | -25.39791 | -64.07249 | 33167 ft | 451 kts | 350° |
| 2026-04-27 23:30 | -25.27346 | -64.07225 | 33164 ft | 450 kts | 351° |
| 2026-04-27 23:30 | -25.14833 | -64.07168 | 33164 ft | 450 kts | 350° |
| 2026-04-27 23:31 | -25.02271 | -64.07124 | 33165 ft | 450 kts | 351° |
| 2026-04-27 23:31 | -24.89713 | -64.07051 | 33168 ft | 451 kts | 351° |
| 2026-04-27 23:32 | -24.77160 | -64.06989 | 33168 ft | 451 kts | 351° |
| 2026-04-27 23:32 | -24.64605 | -64.06949 | 33165 ft | 451 kts | 351° |
| 2026-04-27 23:33 | -24.52042 | -64.06904 | 33165 ft | 451 kts | 351° |
| 2026-04-27 23:33 | -24.39563 | -64.06867 | 33171 ft | 451 kts | 352° |
| 2026-04-27 23:34 | -24.27016 | -64.06806 | 33161 ft | 450 kts | 351° |
| 2026-04-27 23:34 | -24.14442 | -64.06754 | 33154 ft | 452 kts | 352° |
| 2026-04-27 23:35 | -24.01848 | -64.06710 | 33146 ft | 452 kts | 352° |
| 2026-04-27 23:35 | -23.89347 | -64.06655 | 33145 ft | 452 kts | 352° |
| 2026-04-27 23:36 | -23.76726 | -64.06605 | 33136 ft | 452 kts | 352° |
| 2026-04-27 23:36 | -23.64117 | -64.06561 | 33135 ft | 453 kts | 352° |
| 2026-04-27 23:37 | -23.51501 | -64.06494 | 33128 ft | 453 kts | 353° |
| 2026-04-27 23:37 | -23.38981 | -64.06454 | 33133 ft | 452 kts | 352° |
| 2026-04-27 23:38 | -23.26391 | -64.06401 | 33128 ft | 452 kts | 352° |
| 2026-04-27 23:38 | -23.13808 | -64.06378 | 33126 ft | 451 kts | 352° |
| 2026-04-27 23:39 | -23.01274 | -64.06338 | 33122 ft | 451 kts | 354° |
| 2026-04-27 23:39 | -22.88687 | -64.06240 | 33133 ft | 451 kts | 353° |
| 2026-04-27 23:40 | -22.76155 | -64.06219 | 33129 ft | 451 kts | 354° |
| 2026-04-27 23:40 | -22.63703 | -64.06155 | 33132 ft | 449 kts | 353° |
| 2026-04-27 23:41 | -22.51170 | -64.06122 | 33127 ft | 450 kts | 354° |
| 2026-04-27 23:41 | -22.39680 | -64.06060 | 33130 ft | 450 kts | 353° |
| 2026-04-27 23:42 | -22.33443 | -64.06037 | 33228 ft | 452 kts | 354° |
| 2026-04-27 23:42 | -22.30314 | -64.06024 | 33520 ft | 451 kts | 354° |
| 2026-04-27 23:42 | -22.27167 | -64.06012 | 33770 ft | 450 kts | 354° |
| 2026-04-27 23:43 | -22.24036 | -64.05935 | 34023 ft | 455 kts | 0° |
| 2026-04-27 23:43 | -22.20903 | -64.05317 | 34291 ft | 458 kts | 4° |
| 2026-04-27 23:43 | -22.17773 | -64.04688 | 34448 ft | 458 kts | 4° |
| 2026-04-27 23:43 | -22.14622 | -64.04053 | 34621 ft | 459 kts | 4° |
| 2026-04-27 23:44 | -22.11492 | -64.03418 | 34820 ft | 458 kts | 4° |
| 2026-04-27 23:44 | -22.08362 | -64.02782 | 35030 ft | 457 kts | 4° |
| 2026-04-27 23:44 | -22.02096 | -64.01508 | 35112 ft | 456 kts | 4° |
| 2026-04-27 23:45 | -21.93111 | -63.99674 | 35123 ft | 457 kts | 4° |
| 2026-04-27 23:45 | -21.86243 | -63.98291 | 35125 ft | 457 kts | 4° |
| 2026-04-27 23:46 | -21.80005 | -63.97027 | 35108 ft | 456 kts | 4° |
| 2026-04-27 23:46 | -21.70502 | -63.95114 | 35111 ft | 458 kts | 4° |
| 2026-04-27 23:47 | -21.60471 | -63.93061 | 35111 ft | 456 kts | 4° |
| 2026-04-27 23:47 | -21.54218 | -63.91813 | 35110 ft | 457 kts | 4° |
| 2026-04-27 23:48 | -21.42315 | -63.89398 | 35111 ft | 456 kts | 3° |
| 2026-04-27 23:48 | -21.29773 | -63.86884 | 35101 ft | 457 kts | 4° |
| 2026-04-27 23:49 | -21.19502 | -63.84832 | 35093 ft | 456 kts | 4° |
| 2026-04-27 23:49 | -21.11765 | -63.83272 | 35094 ft | 457 kts | 4° |
| 2026-04-27 23:50 | -20.99274 | -63.80785 | 35084 ft | 457 kts | 4° |
| 2026-04-27 23:50 | -20.86701 | -63.78260 | 35091 ft | 457 kts | 4° |
| 2026-04-27 23:51 | -20.77564 | -63.76427 | 35082 ft | 457 kts | 5° |
| 2026-04-27 23:51 | -20.65089 | -63.73920 | 35091 ft | 456 kts | 5° |
| 2026-04-27 23:52 | -20.52677 | -63.71477 | 35104 ft | 455 kts | 4° |
| 2026-04-27 23:52 | -20.41448 | -63.69231 | 35084 ft | 454 kts | 5° |
| 2026-04-27 23:53 | -20.35249 | -63.67999 | 35090 ft | 453 kts | 5° |
| 2026-04-27 23:53 | -20.22976 | -63.65557 | 35083 ft | 454 kts | 6° |
| 2026-04-27 23:54 | -20.10566 | -63.63095 | 35092 ft | 453 kts | 5° |
| 2026-04-27 23:54 | -19.98953 | -63.60794 | 35099 ft | 453 kts | 5° |
| 2026-04-27 23:55 | -19.90718 | -63.59186 | 35093 ft | 452 kts | 5° |
| 2026-04-27 23:55 | -19.78407 | -63.56760 | 35085 ft | 453 kts | 6° |
| 2026-04-27 23:56 | -19.65975 | -63.54267 | 35093 ft | 453 kts | 5° |
| 2026-04-27 23:56 | -19.53545 | -63.51860 | 35088 ft | 454 kts | 6° |
| 2026-04-27 23:57 | -19.41071 | -63.49409 | 35094 ft | 455 kts | 6° |
| 2026-04-27 23:57 | -19.28700 | -63.47001 | 35086 ft | 455 kts | 6° |
| 2026-04-27 23:58 | -19.16163 | -63.44513 | 35084 ft | 456 kts | 6° |
| 2026-04-27 23:58 | -19.08106 | -63.42962 | 35091 ft | 456 kts | 6° |
| 2026-04-27 23:59 | -18.95620 | -63.40530 | 35089 ft | 456 kts | 6° |
| 2026-04-27 23:59 | -18.83132 | -63.38081 | 35088 ft | 457 kts | 7° |
| 2026-04-28 00:00 | -18.70604 | -63.35686 | 35094 ft | 457 kts | 6° |
| 2026-04-28 00:00 | -18.58096 | -63.33219 | 35097 ft | 457 kts | 6° |
| 2026-04-28 00:01 | -18.45645 | -63.30813 | 35097 ft | 457 kts | 7° |
| 2026-04-28 00:01 | -18.33094 | -63.28352 | 35096 ft | 458 kts | 6° |
| 2026-04-28 00:02 | -18.20559 | -63.25956 | 35092 ft | 458 kts | 7° |
| 2026-04-28 00:02 | -18.08008 | -63.23514 | 35074 ft | 458 kts | 7° |
| 2026-04-28 00:03 | -17.95448 | -63.21083 | 35054 ft | 458 kts | 6° |
| 2026-04-28 00:03 | -17.82902 | -63.18717 | 35050 ft | 458 kts | 7° |
| 2026-04-28 00:04 | -17.64154 | -63.15094 | 35048 ft | 458 kts | 7° |
| 2026-04-28 00:05 | -17.51589 | -63.12860 | 35047 ft | 458 kts | 7° |
| 2026-04-28 00:05 | -17.39008 | -63.10584 | 35045 ft | 459 kts | 7° |
| 2026-04-28 00:06 | -17.26431 | -63.08355 | 35038 ft | 459 kts | 7° |
| 2026-04-28 00:06 | -17.13812 | -63.06107 | 35050 ft | 459 kts | 7° |
| 2026-04-28 00:07 | -17.01187 | -63.03876 | 35046 ft | 460 kts | 6° |
| 2026-04-28 00:07 | -16.88550 | -63.01672 | 35038 ft | 460 kts | 7° |
| 2026-04-28 00:08 | -16.75923 | -62.99402 | 35036 ft | 460 kts | 7° |
| 2026-04-28 00:08 | -16.63248 | -62.97171 | 35031 ft | 461 kts | 7° |
| 2026-04-28 00:09 | -16.50708 | -62.94944 | 35022 ft | 461 kts | 7° |
| 2026-04-28 00:09 | -16.38040 | -62.92726 | 35024 ft | 460 kts | 7° |
| 2026-04-28 00:10 | -16.25385 | -62.90482 | 35015 ft | 460 kts | 8° |
| 2026-04-28 00:10 | -16.12767 | -62.88231 | 35016 ft | 460 kts | 7° |
| 2026-04-28 00:11 | -16.00131 | -62.85950 | 35013 ft | 461 kts | 8° |
| 2026-04-28 00:11 | -15.90848 | -62.84308 | 35005 ft | 461 kts | 8° |
| 2026-04-28 00:12 | -15.78162 | -62.82037 | 35001 ft | 462 kts | 7° |
| 2026-04-28 00:12 | -15.65483 | -62.79777 | 34997 ft | 463 kts | 8° |
| 2026-04-28 00:13 | -15.52791 | -62.77529 | 34993 ft | 463 kts | 7° |
| 2026-04-28 00:13 | -15.42206 | -62.75658 | 34989 ft | 464 kts | 7° |
| 2026-04-28 00:14 | -15.27399 | -62.72997 | 34983 ft | 463 kts | 7° |
| 2026-04-28 00:14 | -15.18601 | -62.71451 | 34978 ft | 463 kts | 7° |
| 2026-04-28 00:15 | -15.12252 | -62.70327 | 34977 ft | 462 kts | 7° |
| 2026-04-28 00:15 | -15.05910 | -62.69204 | 34976 ft | 462 kts | 7° |
| 2026-04-28 00:16 | -14.99522 | -62.68729 | 34974 ft | 459 kts | 0° |
| 2026-04-28 00:16 | -14.88601 | -62.68343 | 34973 ft | 458 kts | 359° |
| 2026-04-28 00:17 | -14.75927 | -62.67942 | 34968 ft | 456 kts | 359° |
| 2026-04-28 00:17 | -14.63244 | -62.67532 | 34968 ft | 456 kts | 1° |
| 2026-04-28 00:18 | -14.50557 | -62.67107 | 34974 ft | 457 kts | 0° |
| 2026-04-28 00:18 | -14.37818 | -62.66689 | 34973 ft | 458 kts | 0° |
| 2026-04-28 00:19 | -14.25086 | -62.66268 | 34968 ft | 458 kts | 360° |
| 2026-04-28 00:19 | -14.15068 | -62.65903 | 34967 ft | 458 kts | 0° |
| 2026-04-28 00:20 | -14.04249 | -62.65598 | 34965 ft | 458 kts | 0° |
| 2026-04-28 00:20 | -13.91508 | -62.65169 | 34965 ft | 458 kts | 0° |
| 2026-04-28 00:21 | -13.78717 | -62.64766 | 34965 ft | 459 kts | 1° |
| 2026-04-28 00:21 | -13.66032 | -62.64334 | 34962 ft | 459 kts | 1° |
| 2026-04-28 00:22 | -13.56513 | -62.64023 | 34967 ft | 458 kts | 1° |
| 2026-04-28 00:22 | -13.47008 | -62.63707 | 34966 ft | 458 kts | 0° |
| 2026-04-28 00:23 | -13.34232 | -62.63266 | 34965 ft | 458 kts | 0° |
| 2026-04-28 00:23 | -13.21483 | -62.62877 | 34967 ft | 457 kts | 360° |
| 2026-04-28 00:24 | -13.14870 | -62.62679 | 34968 ft | 457 kts | 1° |
| 2026-04-28 00:24 | -13.08540 | -62.62470 | 34967 ft | 457 kts | 1° |
| 2026-04-28 00:25 | -13.02200 | -62.62514 | 34973 ft | 456 kts | 355° |
| 2026-04-28 00:25 | -12.90761 | -62.63351 | 34970 ft | 456 kts | 355° |
| 2026-04-28 00:26 | -12.78075 | -62.64308 | 34970 ft | 457 kts | 355° |
| 2026-04-28 00:26 | -12.65371 | -62.65267 | 34971 ft | 458 kts | 355° |
| 2026-04-28 00:27 | -12.52662 | -62.66204 | 34975 ft | 459 kts | 356° |
| 2026-04-28 00:27 | -12.42759 | -62.66967 | 34973 ft | 459 kts | 355° |
| 2026-04-28 00:28 | -12.30446 | -62.67894 | 34973 ft | 459 kts | 356° |
| 2026-04-28 00:28 | -12.17665 | -62.68844 | 34976 ft | 460 kts | 356° |
| 2026-04-28 00:29 | -12.04882 | -62.69799 | 34974 ft | 460 kts | 355° |
| 2026-04-28 00:29 | -11.92104 | -62.70734 | 34973 ft | 460 kts | 355° |
| 2026-04-28 00:30 | -11.79321 | -62.71697 | 34968 ft | 460 kts | 356° |
| 2026-04-28 00:30 | -11.66643 | -62.72657 | 34970 ft | 460 kts | 356° |
| 2026-04-28 00:31 | -11.53882 | -62.73609 | 34967 ft | 459 kts | 356° |
| 2026-04-28 00:31 | -11.41133 | -62.74533 | 34965 ft | 459 kts | 356° |
| 2026-04-28 00:32 | -11.28364 | -62.75512 | 34964 ft | 460 kts | 355° |
| 2026-04-28 00:32 | -11.15668 | -62.76475 | 34967 ft | 460 kts | 356° |
| 2026-04-28 00:33 | -11.02827 | -62.77381 | 34969 ft | 460 kts | 355° |
| 2026-04-28 00:33 | -10.90134 | -62.78351 | 34967 ft | 460 kts | 356° |
| 2026-04-28 00:34 | -10.77354 | -62.79296 | 34966 ft | 460 kts | 356° |
| 2026-04-28 00:34 | -10.64568 | -62.80247 | 34969 ft | 460 kts | 356° |
| 2026-04-28 00:35 | -10.51795 | -62.81198 | 34961 ft | 461 kts | 356° |
| 2026-04-28 00:35 | -10.39015 | -62.82123 | 34960 ft | 461 kts | 356° |
| 2026-04-28 00:36 | -10.26226 | -62.83090 | 34957 ft | 461 kts | 356° |
| 2026-04-28 00:36 | -10.13411 | -62.84011 | 34952 ft | 461 kts | 356° |
| 2026-04-28 00:37 | -10.00624 | -62.84939 | 34947 ft | 461 kts | 356° |
| 2026-04-28 00:37 | -9.87817 | -62.85887 | 34943 ft | 461 kts | 356° |
| 2026-04-28 00:38 | -9.75080 | -62.86837 | 34940 ft | 461 kts | 356° |
| 2026-04-28 00:38 | -9.62281 | -62.87813 | 34932 ft | 461 kts | 356° |
| 2026-04-28 00:39 | -9.49496 | -62.88741 | 34928 ft | 460 kts | 356° |
| 2026-04-28 00:39 | -9.36774 | -62.89678 | 34929 ft | 459 kts | 357° |
| 2026-04-28 00:40 | -9.24015 | -62.90600 | 34924 ft | 459 kts | 357° |
| 2026-04-28 00:40 | -9.11261 | -62.91531 | 34926 ft | 459 kts | 357° |
| 2026-04-28 00:41 | -8.98521 | -62.92471 | 34920 ft | 459 kts | 357° |
| 2026-04-28 00:41 | -8.85766 | -62.93390 | 34925 ft | 459 kts | 357° |
| 2026-04-28 00:42 | -8.76231 | -62.94138 | 34916 ft | 459 kts | 357° |
| 2026-04-28 00:42 | -8.63455 | -62.95037 | 34915 ft | 460 kts | 357° |
| 2026-04-28 00:43 | -8.50767 | -62.95965 | 34920 ft | 460 kts | 356° |
| 2026-04-28 00:43 | -8.37993 | -62.96901 | 34920 ft | 460 kts | 358° |
| 2026-04-28 00:44 | -8.25182 | -62.97831 | 34922 ft | 461 kts | 356° |
| 2026-04-28 00:44 | -8.12378 | -62.98783 | 34925 ft | 461 kts | 357° |
| 2026-04-28 00:45 | -8.00012 | -62.99641 | 34926 ft | 462 kts | 357° |
| 2026-04-28 00:45 | -7.89955 | -63.00421 | 34925 ft | 462 kts | 357° |
| 2026-04-28 00:46 | -7.77200 | -63.01334 | 34927 ft | 463 kts | 357° |
| 2026-04-28 00:46 | -7.64329 | -63.02272 | 34928 ft | 464 kts | 358° |
| 2026-04-28 00:47 | -7.51444 | -63.03228 | 34931 ft | 464 kts | 358° |
| 2026-04-28 00:47 | -7.38532 | -63.04174 | 34929 ft | 465 kts | 357° |
| 2026-04-28 00:48 | -7.25614 | -63.05101 | 34929 ft | 465 kts | 358° |
| 2026-04-28 00:48 | -7.12693 | -63.06022 | 34932 ft | 465 kts | 358° |
| 2026-04-28 00:49 | -6.99845 | -63.06972 | 34932 ft | 466 kts | 356° |
| 2026-04-28 00:49 | -6.86917 | -63.07915 | 34934 ft | 466 kts | 358° |
| 2026-04-28 00:50 | -6.73958 | -63.08855 | 34940 ft | 466 kts | 357° |
| 2026-04-28 00:50 | -6.61024 | -63.09815 | 34942 ft | 466 kts | 358° |
| 2026-04-28 00:51 | -6.48180 | -63.10684 | 34942 ft | 466 kts | 356° |
| 2026-04-28 00:51 | -6.39612 | -63.11327 | 34941 ft | 465 kts | 357° |
| 2026-04-28 00:52 | -6.33147 | -63.11797 | 34942 ft | 466 kts | 357° |
| 2026-04-28 00:52 | -6.26680 | -63.12265 | 34945 ft | 466 kts | 357° |
| 2026-04-28 00:53 | -6.20204 | -63.12734 | 34945 ft | 466 kts | 357° |
| 2026-04-28 00:53 | -6.13737 | -63.13202 | 34943 ft | 466 kts | 357° |
| 2026-04-28 00:54 | -6.07298 | -63.13668 | 34944 ft | 466 kts | 357° |
| 2026-04-28 00:54 | -6.00812 | -63.14137 | 34945 ft | 466 kts | 357° |
| 2026-04-28 00:55 | -5.94338 | -63.14605 | 34944 ft | 466 kts | 357° |
| 2026-04-28 00:55 | -5.87867 | -63.15073 | 34946 ft | 466 kts | 357° |
| 2026-04-28 00:56 | -5.81441 | -63.15537 | 34939 ft | 466 kts | 357° |
| 2026-04-28 00:56 | -5.74968 | -63.16005 | 34944 ft | 465 kts | 357° |
| 2026-04-28 00:57 | -5.68523 | -63.16663 | 34943 ft | 465 kts | 355° |
| 2026-04-28 00:57 | -5.62085 | -63.17329 | 34940 ft | 465 kts | 355° |
| 2026-04-28 00:58 | -5.55639 | -63.17991 | 34939 ft | 465 kts | 355° |
| 2026-04-28 00:58 | -5.49194 | -63.18653 | 34942 ft | 465 kts | 355° |
| 2026-04-28 00:59 | -5.42751 | -63.19313 | 34942 ft | 465 kts | 355° |
| 2026-04-28 00:59 | -5.36335 | -63.19971 | 34941 ft | 465 kts | 355° |
| 2026-04-28 01:00 | -5.29889 | -63.20631 | 34940 ft | 465 kts | 355° |
| 2026-04-28 01:00 | -5.24527 | -63.21181 | 34940 ft | 465 kts | 355° |
| 2026-04-28 01:01 | -5.17021 | -63.21949 | 34941 ft | 465 kts | 356° |
| 2026-04-28 01:01 | -5.11677 | -63.22497 | 34946 ft | 465 kts | 356° |
| 2026-04-28 01:02 | -5.04161 | -63.23266 | 34945 ft | 465 kts | 356° |
| 2026-04-28 01:02 | -4.98771 | -63.23818 | 34942 ft | 465 kts | 356° |
| 2026-04-28 01:03 | -4.92331 | -63.24477 | 34941 ft | 465 kts | 356° |
| 2026-04-28 01:03 | -4.85890 | -63.25136 | 34940 ft | 465 kts | 356° |
| 2026-04-28 01:04 | -4.79448 | -63.25795 | 34941 ft | 465 kts | 356° |
| 2026-04-28 01:04 | -4.73050 | -63.26450 | 34940 ft | 465 kts | 356° |
| 2026-04-28 01:05 | -4.66613 | -63.27108 | 34941 ft | 465 kts | 356° |
| 2026-04-28 01:05 | -4.60166 | -63.27767 | 34940 ft | 465 kts | 356° |
| 2026-04-28 01:06 | -4.53726 | -63.28426 | 34937 ft | 465 kts | 356° |
| 2026-04-28 01:06 | -4.47276 | -63.29085 | 34937 ft | 465 kts | 356° |
| 2026-04-28 01:07 | -4.40839 | -63.29743 | 34939 ft | 465 kts | 356° |
| 2026-04-28 01:07 | -4.34434 | -63.30397 | 34937 ft | 465 kts | 356° |
| 2026-04-28 01:08 | -4.27985 | -63.31056 | 34938 ft | 465 kts | 356° |
| 2026-04-28 01:08 | -4.21553 | -63.31713 | 34939 ft | 465 kts | 356° |
| 2026-04-28 01:09 | -4.15101 | -63.32372 | 34940 ft | 465 kts | 356° |
| 2026-04-28 01:09 | -4.08660 | -63.33029 | 34940 ft | 465 kts | 356° |
| 2026-04-28 01:10 | -4.02259 | -63.33683 | 34942 ft | 465 kts | 355° |
| 2026-04-28 01:10 | -3.95807 | -63.34342 | 34938 ft | 465 kts | 355° |
| 2026-04-28 01:11 | -3.89374 | -63.34998 | 34940 ft | 465 kts | 356° |
| 2026-04-28 01:11 | -3.82923 | -63.35656 | 34941 ft | 466 kts | 355° |
| 2026-04-28 01:12 | -3.76460 | -63.36316 | 34943 ft | 466 kts | 356° |
| 2026-04-28 01:12 | -3.70045 | -63.36970 | 34937 ft | 466 kts | 355° |
| 2026-04-28 01:13 | -3.63576 | -63.37630 | 34940 ft | 466 kts | 355° |
| 2026-04-28 01:13 | -3.53918 | -63.38615 | 34941 ft | 467 kts | 355° |
| 2026-04-28 01:14 | -3.47448 | -63.39275 | 34941 ft | 467 kts | 355° |
| 2026-04-28 01:14 | -3.40962 | -63.39936 | 34939 ft | 468 kts | 356° |
| 2026-04-28 01:15 | -3.34479 | -63.40597 | 34942 ft | 468 kts | 355° |
| 2026-04-28 01:15 | -3.28042 | -63.41253 | 34940 ft | 468 kts | 356° |
| 2026-04-28 01:16 | -3.21562 | -63.41913 | 34942 ft | 468 kts | 355° |
| 2026-04-28 01:16 | -3.15080 | -63.42573 | 34942 ft | 468 kts | 356° |
| 2026-04-28 01:17 | -3.08587 | -63.43235 | 34940 ft | 468 kts | 355° |
| 2026-04-28 01:17 | -3.02104 | -63.43895 | 34941 ft | 468 kts | 356° |
| 2026-04-28 01:18 | -2.95617 | -63.44556 | 34942 ft | 469 kts | 355° |
| 2026-04-28 01:18 | -2.89117 | -63.45218 | 34942 ft | 469 kts | 355° |
| 2026-04-28 01:19 | -2.82624 | -63.45879 | 34942 ft | 469 kts | 355° |
| 2026-04-28 01:19 | -2.76182 | -63.46535 | 34942 ft | 469 kts | 355° |
| 2026-04-28 01:20 | -2.69677 | -63.47197 | 34942 ft | 469 kts | 355° |
| 2026-04-28 01:20 | -2.63196 | -63.47857 | 34942 ft | 469 kts | 355° |
| 2026-04-28 01:21 | -2.56688 | -63.48520 | 34943 ft | 469 kts | 355° |
| 2026-04-28 01:21 | -2.50195 | -63.49181 | 34945 ft | 469 kts | 355° |
| 2026-04-28 01:22 | -2.43707 | -63.49841 | 34941 ft | 469 kts | 355° |
| 2026-04-28 01:22 | -2.37212 | -63.50502 | 34941 ft | 469 kts | 355° |
| 2026-04-28 01:23 | -2.30742 | -63.51160 | 34944 ft | 469 kts | 355° |
| 2026-04-28 01:23 | -2.24245 | -63.51821 | 34945 ft | 469 kts | 355° |
| 2026-04-28 01:24 | -2.17752 | -63.52482 | 34946 ft | 469 kts | 355° |
| 2026-04-28 01:24 | -2.11247 | -63.53143 | 34944 ft | 469 kts | 355° |
| 2026-04-28 01:25 | -2.04749 | -63.53804 | 34943 ft | 469 kts | 355° |
| 2026-04-28 01:25 | -1.98289 | -63.54461 | 34943 ft | 469 kts | 355° |
| 2026-04-28 01:26 | -1.91801 | -63.55121 | 34944 ft | 469 kts | 355° |
| 2026-04-28 01:26 | -1.85304 | -63.55782 | 34945 ft | 469 kts | 355° |
| 2026-04-28 01:27 | -1.78802 | -63.56443 | 34944 ft | 469 kts | 355° |
| 2026-04-28 01:27 | -1.72310 | -63.57103 | 34944 ft | 469 kts | 355° |
| 2026-04-28 01:28 | -1.65802 | -63.57765 | 34944 ft | 469 kts | 355° |
| 2026-04-28 01:28 | -1.59337 | -63.58422 | 34944 ft | 469 kts | 355° |
| 2026-04-28 01:29 | -1.52842 | -63.59082 | 34949 ft | 470 kts | 355° |
| 2026-04-28 01:29 | -1.46335 | -63.59743 | 34947 ft | 470 kts | 355° |
| 2026-04-28 01:30 | -1.39830 | -63.60405 | 34943 ft | 470 kts | 355° |
| 2026-04-28 01:30 | -1.33316 | -63.61067 | 34943 ft | 470 kts | 355° |
| 2026-04-28 01:31 | -1.26811 | -63.61728 | 34947 ft | 470 kts | 355° |
| 2026-04-28 01:31 | -1.20291 | -63.62390 | 34946 ft | 470 kts | 355° |
| 2026-04-28 01:32 | -1.13831 | -63.63047 | 34946 ft | 470 kts | 355° |
| 2026-04-28 01:32 | -1.07312 | -63.63709 | 34946 ft | 470 kts | 355° |
| 2026-04-28 01:33 | -1.00785 | -63.64372 | 34945 ft | 470 kts | 355° |
| 2026-04-28 01:33 | -0.94275 | -63.65034 | 34942 ft | 470 kts | 355° |
| 2026-04-28 01:34 | -0.87755 | -63.65696 | 34942 ft | 471 kts | 355° |
| 2026-04-28 01:34 | -0.81270 | -63.66355 | 34942 ft | 471 kts | 355° |
| 2026-04-28 01:35 | -0.74757 | -63.67017 | 34945 ft | 471 kts | 355° |
| 2026-04-28 01:35 | -0.68243 | -63.67679 | 34943 ft | 471 kts | 355° |
| 2026-04-28 01:36 | -0.61726 | -63.68341 | 34940 ft | 471 kts | 355° |
| 2026-04-28 01:36 | -0.55193 | -63.69005 | 34942 ft | 471 kts | 355° |
| 2026-04-28 01:37 | -0.48681 | -63.69666 | 34946 ft | 471 kts | 355° |
| 2026-04-28 01:37 | -0.42153 | -63.70329 | 34942 ft | 471 kts | 355° |
| 2026-04-28 01:38 | -0.35626 | -63.70992 | 34942 ft | 471 kts | 355° |
| 2026-04-28 01:38 | -0.29101 | -63.71655 | 34940 ft | 471 kts | 355° |
| 2026-04-28 01:39 | -0.22575 | -63.72318 | 34940 ft | 471 kts | 355° |
| 2026-04-28 01:39 | -0.17149 | -63.72869 | 34942 ft | 471 kts | 355° |
| 2026-04-28 01:40 | -0.09561 | -63.73640 | 34946 ft | 471 kts | 355° |
| 2026-04-28 01:40 | -0.03035 | -63.74303 | 34945 ft | 472 kts | 355° |
| 2026-04-28 01:41 | 0.03496 | -63.74967 | 34973 ft | 474 kts | 355° |
| 2026-04-28 01:41 | 0.05676 | -63.75188 | 35126 ft | 473 kts | 355° |
| 2026-04-28 01:41 | 0.10046 | -63.75632 | 35414 ft | 472 kts | 355° |
| 2026-04-28 01:42 | 0.13329 | -63.75965 | 35613 ft | 472 kts | 355° |
| 2026-04-28 01:42 | 0.15476 | -63.76183 | 35752 ft | 472 kts | 355° |
| 2026-04-28 01:42 | 0.19870 | -63.76630 | 36027 ft | 471 kts | 355° |
| 2026-04-28 01:42 | 0.23130 | -63.76961 | 36228 ft | 471 kts | 354° |
| 2026-04-28 01:43 | 0.26390 | -63.77292 | 36428 ft | 470 kts | 354° |
| 2026-04-28 01:43 | 0.29615 | -63.77620 | 36626 ft | 470 kts | 354° |
| 2026-04-28 01:43 | 0.32867 | -63.77950 | 36824 ft | 469 kts | 354° |
| 2026-04-28 01:43 | 0.34330 | -63.78099 | 36897 ft | 469 kts | 354° |
| 2026-04-28 01:44 | 0.38801 | -63.78553 | 36936 ft | 468 kts | 354° |
| 2026-04-28 01:44 | 0.46386 | -63.79323 | 36938 ft | 468 kts | 354° |
| 2026-04-28 01:45 | 0.52859 | -63.79981 | 36941 ft | 467 kts | 354° |
| 2026-04-28 01:45 | 0.59323 | -63.80637 | 36941 ft | 467 kts | 354° |
| 2026-04-28 01:46 | 0.65753 | -63.81290 | 36942 ft | 467 kts | 354° |
| 2026-04-28 01:46 | 0.72216 | -63.81947 | 36943 ft | 467 kts | 354° |
| 2026-04-28 01:47 | 0.77615 | -63.82495 | 36943 ft | 467 kts | 354° |
| 2026-04-28 01:47 | 0.84079 | -63.83152 | 36950 ft | 467 kts | 354° |
| 2026-04-28 01:48 | 0.90551 | -63.83810 | 36952 ft | 467 kts | 354° |
| 2026-04-28 01:48 | 0.94440 | -63.84205 | 36954 ft | 467 kts | 354° |
| 2026-04-28 01:49 | 0.96183 | -63.84382 | 36958 ft | 467 kts | 354° |
| 2026-04-28 01:49 | 1.01085 | -63.84880 | 36956 ft | 468 kts | 354° |
| 2026-04-28 01:50 | 1.04141 | -63.85191 | 36956 ft | 468 kts | 354° |
| 2026-04-28 01:50 | 1.09759 | -63.85762 | 36961 ft | 468 kts | 354° |
| 2026-04-28 01:51 | 1.16257 | -63.86422 | 36969 ft | 469 kts | 354° |
| 2026-04-28 01:51 | 1.22750 | -63.87082 | 36960 ft | 468 kts | 354° |
| 2026-04-28 01:52 | 1.29204 | -63.87737 | 36975 ft | 468 kts | 354° |
| 2026-04-28 01:52 | 1.35659 | -63.88393 | 36973 ft | 468 kts | 354° |
| 2026-04-28 01:53 | 1.42123 | -63.89050 | 36971 ft | 467 kts | 354° |
| 2026-04-28 01:53 | 1.48610 | -63.89710 | 36969 ft | 467 kts | 354° |
| 2026-04-28 01:54 | 1.55091 | -63.90369 | 36975 ft | 467 kts | 354° |
| 2026-04-28 01:54 | 1.61525 | -63.91023 | 36979 ft | 467 kts | 354° |
| 2026-04-28 01:55 | 1.67996 | -63.91681 | 36978 ft | 467 kts | 354° |
| 2026-04-28 01:55 | 1.74467 | -63.92339 | 36978 ft | 467 kts | 354° |
| 2026-04-28 01:56 | 1.80943 | -63.92997 | 36984 ft | 468 kts | 354° |
| 2026-04-28 01:56 | 1.87422 | -63.93656 | 36984 ft | 468 kts | 354° |
| 2026-04-28 01:57 | 1.93912 | -63.94316 | 36985 ft | 468 kts | 354° |
| 2026-04-28 01:57 | 2.00299 | -63.95278 | 36982 ft | 466 kts | 341° |
| 2026-04-28 01:58 | 2.06461 | -63.97339 | 36994 ft | 466 kts | 342° |
| 2026-04-28 01:58 | 2.12621 | -63.99389 | 36993 ft | 466 kts | 341° |
| 2026-04-28 01:59 | 2.18775 | -64.01446 | 36993 ft | 465 kts | 341° |
| 2026-04-28 01:59 | 2.24911 | -64.03498 | 36996 ft | 465 kts | 341° |
| 2026-04-28 02:00 | 2.30997 | -64.05534 | 37001 ft | 463 kts | 341° |
| 2026-04-28 02:00 | 2.37112 | -64.07580 | 37006 ft | 463 kts | 341° |
| 2026-04-28 02:01 | 2.43223 | -64.09624 | 37007 ft | 462 kts | 341° |
| 2026-04-28 02:01 | 2.49325 | -64.11665 | 37013 ft | 462 kts | 341° |
| 2026-04-28 02:02 | 2.55431 | -64.13709 | 37014 ft | 462 kts | 341° |
| 2026-04-28 02:02 | 2.61520 | -64.15747 | 37018 ft | 461 kts | 341° |
| 2026-04-28 02:03 | 2.67608 | -64.17784 | 37018 ft | 461 kts | 341° |
| 2026-04-28 02:03 | 2.73688 | -64.19819 | 37019 ft | 461 kts | 341° |
| 2026-04-28 02:04 | 2.79734 | -64.21843 | 37020 ft | 461 kts | 341° |
| 2026-04-28 02:04 | 2.85825 | -64.23882 | 37024 ft | 461 kts | 341° |
| 2026-04-28 02:05 | 2.91917 | -64.25922 | 37030 ft | 462 kts | 341° |
| 2026-04-28 02:05 | 2.98012 | -64.27963 | 37023 ft | 462 kts | 340° |
| 2026-04-28 02:06 | 3.04125 | -64.30010 | 37027 ft | 462 kts | 340° |
| 2026-04-28 02:06 | 3.10225 | -64.32053 | 37024 ft | 462 kts | 340° |
| 2026-04-28 02:07 | 3.16285 | -64.34083 | 37023 ft | 462 kts | 340° |
| 2026-04-28 02:07 | 3.22418 | -64.36138 | 37022 ft | 462 kts | 340° |
| 2026-04-28 02:08 | 3.28488 | -64.38172 | 37023 ft | 463 kts | 340° |
| 2026-04-28 02:08 | 3.34594 | -64.40218 | 37021 ft | 463 kts | 339° |
| 2026-04-28 02:09 | 3.40709 | -64.42268 | 37021 ft | 463 kts | 339° |
| 2026-04-28 02:09 | 3.46827 | -64.44318 | 37024 ft | 463 kts | 339° |
| 2026-04-28 02:10 | 3.52913 | -64.46359 | 37022 ft | 464 kts | 339° |
| 2026-04-28 02:10 | 3.59036 | -64.48411 | 37022 ft | 464 kts | 339° |
| 2026-04-28 02:11 | 3.65175 | -64.50470 | 37027 ft | 464 kts | 339° |
| 2026-04-28 02:11 | 3.71277 | -64.52517 | 37027 ft | 465 kts | 339° |
| 2026-04-28 02:12 | 3.77410 | -64.54574 | 37032 ft | 465 kts | 339° |
| 2026-04-28 02:12 | 3.83566 | -64.56639 | 37034 ft | 466 kts | 339° |
| 2026-04-28 02:13 | 3.89713 | -64.58702 | 37033 ft | 466 kts | 339° |
| 2026-04-28 02:13 | 3.95862 | -64.60765 | 37031 ft | 466 kts | 339° |
| 2026-04-28 02:14 | 4.02013 | -64.62830 | 37035 ft | 466 kts | 339° |
| 2026-04-28 02:14 | 4.08129 | -64.64883 | 37039 ft | 466 kts | 339° |
| 2026-04-28 02:15 | 4.17350 | -64.67979 | 37038 ft | 466 kts | 339° |
| 2026-04-28 02:16 | 4.23506 | -64.70047 | 37032 ft | 466 kts | 340° |
| 2026-04-28 02:16 | 4.29659 | -64.72113 | 37037 ft | 466 kts | 340° |
| 2026-04-28 02:17 | 4.35816 | -64.74181 | 37037 ft | 466 kts | 340° |
| 2026-04-28 02:17 | 4.41966 | -64.76248 | 37028 ft | 466 kts | 340° |
| 2026-04-28 02:18 | 4.48083 | -64.78303 | 37027 ft | 466 kts | 340° |
| 2026-04-28 02:18 | 4.54232 | -64.80370 | 37020 ft | 466 kts | 340° |
| 2026-04-28 02:19 | 4.60404 | -64.82445 | 37016 ft | 467 kts | 340° |
| 2026-04-28 02:19 | 4.66554 | -64.84513 | 37004 ft | 466 kts | 340° |
| 2026-04-28 02:20 | 4.72717 | -64.86586 | 37003 ft | 466 kts | 340° |
| 2026-04-28 02:20 | 4.78872 | -64.88656 | 36997 ft | 466 kts | 340° |
| 2026-04-28 02:21 | 4.85015 | -64.90723 | 37000 ft | 466 kts | 340° |
| 2026-04-28 02:21 | 4.91121 | -64.92777 | 37001 ft | 466 kts | 340° |
| 2026-04-28 02:22 | 4.97261 | -64.94844 | 37000 ft | 465 kts | 340° |
| 2026-04-28 02:22 | 5.02373 | -64.96565 | 36992 ft | 465 kts | 340° |
| 2026-04-28 02:23 | 5.09559 | -64.98985 | 36998 ft | 466 kts | 340° |
| 2026-04-28 02:23 | 5.15706 | -65.01055 | 37001 ft | 466 kts | 340° |
| 2026-04-28 02:24 | 5.21862 | -65.03128 | 37009 ft | 467 kts | 340° |
| 2026-04-28 02:24 | 5.27993 | -65.05194 | 37011 ft | 467 kts | 340° |
| 2026-04-28 02:25 | 5.34154 | -65.07270 | 37016 ft | 468 kts | 340° |
| 2026-04-28 02:25 | 5.40320 | -65.09348 | 37023 ft | 468 kts | 340° |
| 2026-04-28 02:26 | 5.46521 | -65.11439 | 37029 ft | 469 kts | 340° |
| 2026-04-28 02:26 | 5.52712 | -65.13526 | 37032 ft | 470 kts | 340° |
| 2026-04-28 02:27 | 5.58923 | -65.15620 | 37027 ft | 470 kts | 340° |
| 2026-04-28 02:27 | 5.65100 | -65.17705 | 37027 ft | 471 kts | 340° |
| 2026-04-28 02:28 | 5.71327 | -65.19806 | 37036 ft | 472 kts | 340° |
| 2026-04-28 02:28 | 5.77558 | -65.21909 | 37033 ft | 472 kts | 340° |
| 2026-04-28 02:29 | 5.83780 | -65.24009 | 37033 ft | 472 kts | 340° |
| 2026-04-28 02:29 | 5.90016 | -65.26115 | 37027 ft | 472 kts | 340° |
| 2026-04-28 02:30 | 5.96232 | -65.28214 | 37023 ft | 473 kts | 340° |
| 2026-04-28 02:30 | 6.02476 | -65.30324 | 37025 ft | 473 kts | 340° |
| 2026-04-28 02:31 | 6.08716 | -65.32432 | 37016 ft | 473 kts | 340° |
| 2026-04-28 02:31 | 6.14953 | -65.34540 | 37012 ft | 473 kts | 340° |
| 2026-04-28 02:32 | 6.21156 | -65.36637 | 37008 ft | 473 kts | 340° |
| 2026-04-28 02:32 | 6.27393 | -65.38746 | 37001 ft | 472 kts | 340° |
| 2026-04-28 02:33 | 6.33613 | -65.40849 | 37001 ft | 471 kts | 340° |
| 2026-04-28 02:33 | 6.39820 | -65.42950 | 36997 ft | 470 kts | 340° |
| 2026-04-28 02:34 | 6.46023 | -65.45049 | 36993 ft | 470 kts | 340° |
| 2026-04-28 02:34 | 6.52221 | -65.47147 | 36988 ft | 469 kts | 340° |
| 2026-04-28 02:35 | 6.58413 | -65.49243 | 36986 ft | 469 kts | 340° |
| 2026-04-28 02:35 | 6.64571 | -65.51329 | 36983 ft | 470 kts | 340° |
| 2026-04-28 02:36 | 6.70764 | -65.53427 | 36978 ft | 470 kts | 340° |
| 2026-04-28 02:36 | 6.75925 | -65.55175 | 36967 ft | 470 kts | 340° |
| 2026-04-28 02:37 | 6.82122 | -65.57276 | 36961 ft | 471 kts | 340° |
| 2026-04-28 02:37 | 6.88338 | -65.59383 | 36962 ft | 471 kts | 340° |
| 2026-04-28 02:38 | 6.94563 | -65.61494 | 36960 ft | 471 kts | 340° |
| 2026-04-28 02:38 | 7.00795 | -65.63608 | 36956 ft | 472 kts | 340° |
| 2026-04-28 02:39 | 7.07019 | -65.65720 | 36955 ft | 472 kts | 340° |
| 2026-04-28 02:39 | 7.13197 | -65.67817 | 36952 ft | 472 kts | 340° |
| 2026-04-28 02:40 | 7.19435 | -65.69935 | 36952 ft | 472 kts | 340° |
| 2026-04-28 02:40 | 7.25664 | -65.72050 | 36951 ft | 472 kts | 340° |
| 2026-04-28 02:41 | 7.31847 | -65.74151 | 36946 ft | 472 kts | 340° |
| 2026-04-28 02:41 | 7.38078 | -65.76268 | 36946 ft | 472 kts | 340° |
| 2026-04-28 02:42 | 7.44298 | -65.78383 | 36948 ft | 472 kts | 340° |
| 2026-04-28 02:42 | 7.50530 | -65.80502 | 36943 ft | 472 kts | 340° |
| 2026-04-28 02:43 | 7.56756 | -65.82619 | 36943 ft | 472 kts | 340° |
| 2026-04-28 02:43 | 7.62975 | -65.84734 | 36942 ft | 472 kts | 339° |
| 2026-04-28 02:44 | 7.69198 | -65.86852 | 36941 ft | 472 kts | 339° |
| 2026-04-28 02:44 | 7.75392 | -65.88960 | 36945 ft | 472 kts | 339° |
| 2026-04-28 02:45 | 7.81610 | -65.91078 | 36944 ft | 471 kts | 339° |
| 2026-04-28 02:45 | 7.87835 | -65.93199 | 36942 ft | 471 kts | 339° |
| 2026-04-28 02:46 | 7.94039 | -65.95312 | 36941 ft | 471 kts | 339° |
| 2026-04-28 02:46 | 8.00253 | -65.97430 | 36945 ft | 471 kts | 339° |
| 2026-04-28 02:47 | 8.06419 | -65.99533 | 36945 ft | 470 kts | 339° |
| 2026-04-28 02:47 | 8.12615 | -66.01646 | 36950 ft | 470 kts | 339° |
| 2026-04-28 02:48 | 8.18817 | -66.03762 | 36947 ft | 470 kts | 339° |
| 2026-04-28 02:48 | 8.25015 | -66.05877 | 36948 ft | 470 kts | 339° |
| 2026-04-28 02:49 | 8.31203 | -66.07990 | 36951 ft | 469 kts | 339° |
| 2026-04-28 02:49 | 8.37395 | -66.10105 | 36958 ft | 469 kts | 339° |
| 2026-04-28 02:50 | 8.43579 | -66.12217 | 36954 ft | 469 kts | 339° |
| 2026-04-28 02:50 | 8.49726 | -66.14318 | 36959 ft | 469 kts | 339° |
| 2026-04-28 02:51 | 8.55912 | -66.16433 | 36958 ft | 469 kts | 339° |
| 2026-04-28 02:51 | 8.62094 | -66.18547 | 36965 ft | 468 kts | 339° |
| 2026-04-28 02:52 | 8.68264 | -66.20657 | 36965 ft | 468 kts | 339° |
| 2026-04-28 02:52 | 8.74441 | -66.22771 | 36964 ft | 468 kts | 339° |
| 2026-04-28 02:53 | 8.80616 | -66.24885 | 36964 ft | 468 kts | 339° |
| 2026-04-28 02:53 | 8.86747 | -66.26985 | 36966 ft | 468 kts | 339° |
| 2026-04-28 02:54 | 8.92913 | -66.29097 | 36970 ft | 468 kts | 339° |
| 2026-04-28 02:54 | 8.99088 | -66.31214 | 36970 ft | 468 kts | 339° |
| 2026-04-28 02:55 | 9.05254 | -66.33327 | 36973 ft | 468 kts | 339° |
| 2026-04-28 02:55 | 9.11414 | -66.35440 | 36973 ft | 468 kts | 339° |
| 2026-04-28 02:56 | 9.17576 | -66.37554 | 36975 ft | 468 kts | 339° |
| 2026-04-28 02:56 | 9.23746 | -66.39671 | 36975 ft | 468 kts | 339° |
| 2026-04-28 02:57 | 9.29878 | -66.41777 | 36977 ft | 468 kts | 339° |
| 2026-04-28 02:57 | 9.36085 | -66.43908 | 36979 ft | 468 kts | 339° |
| 2026-04-28 02:58 | 9.42221 | -66.46017 | 36979 ft | 468 kts | 339° |
| 2026-04-28 02:58 | 9.48396 | -66.48140 | 36980 ft | 468 kts | 339° |
| 2026-04-28 02:59 | 9.54584 | -66.50267 | 36981 ft | 469 kts | 339° |
| 2026-04-28 02:59 | 9.60767 | -66.52394 | 36991 ft | 469 kts | 339° |
| 2026-04-28 03:00 | 9.66957 | -66.54524 | 36996 ft | 469 kts | 339° |
| 2026-04-28 03:00 | 9.73098 | -66.56638 | 36998 ft | 469 kts | 339° |
| 2026-04-28 03:01 | 9.79281 | -66.58767 | 37005 ft | 470 kts | 339° |
| 2026-04-28 03:01 | 9.85483 | -66.60904 | 37007 ft | 470 kts | 339° |
| 2026-04-28 03:02 | 9.91683 | -66.63041 | 37014 ft | 470 kts | 339° |
| 2026-04-28 03:02 | 9.97878 | -66.65177 | 37018 ft | 470 kts | 339° |
| 2026-04-28 03:03 | 10.04041 | -66.67303 | 37029 ft | 471 kts | 339° |
| 2026-04-28 03:03 | 10.10238 | -66.69441 | 37033 ft | 471 kts | 339° |
| 2026-04-28 03:04 | 10.14154 | -66.70793 | 37034 ft | 471 kts | 339° |
| 2026-04-28 03:04 | 10.20368 | -66.72938 | 37042 ft | 471 kts | 339° |
| 2026-04-28 03:05 | 10.26582 | -66.75085 | 37047 ft | 472 kts | 339° |
| 2026-04-28 03:05 | 10.32804 | -66.77235 | 37040 ft | 472 kts | 339° |
| 2026-04-28 03:06 | 10.39018 | -66.79384 | 37023 ft | 472 kts | 339° |
| 2026-04-28 03:06 | 10.45232 | -66.81533 | 37011 ft | 472 kts | 339° |
| 2026-04-28 03:07 | 10.51479 | -66.83695 | 37006 ft | 472 kts | 339° |
| 2026-04-28 03:07 | 10.57662 | -66.85835 | 36984 ft | 472 kts | 339° |
| 2026-04-28 03:08 | 10.63875 | -66.87987 | 36983 ft | 472 kts | 339° |
| 2026-04-28 03:08 | 10.70122 | -66.90151 | 36994 ft | 473 kts | 339° |
| 2026-04-28 03:09 | 10.76351 | -66.92310 | 36993 ft | 473 kts | 339° |
| 2026-04-28 03:09 | 10.82604 | -66.94478 | 36991 ft | 474 kts | 339° |
| 2026-04-28 03:10 | 10.88835 | -66.96640 | 36983 ft | 474 kts | 339° |
| 2026-04-28 03:10 | 10.95047 | -66.98796 | 36981 ft | 474 kts | 339° |
| 2026-04-28 03:11 | 11.01293 | -67.00965 | 36980 ft | 474 kts | 339° |
| 2026-04-28 03:11 | 11.07550 | -67.03138 | 36991 ft | 475 kts | 339° |
| 2026-04-28 03:11 | 11.10682 | -67.04227 | 37188 ft | 475 kts | 339° |
| 2026-04-28 03:12 | 11.13772 | -67.05301 | 37424 ft | 474 kts | 339° |
| 2026-04-28 03:12 | 11.16889 | -67.06385 | 37659 ft | 473 kts | 339° |
| 2026-04-28 03:12 | 11.20035 | -67.07479 | 37908 ft | 471 kts | 339° |
| 2026-04-28 03:13 | 11.26187 | -67.09619 | 37977 ft | 468 kts | 339° |
| 2026-04-28 03:13 | 11.32388 | -67.11776 | 37986 ft | 468 kts | 339° |
| 2026-04-28 03:14 | 11.38567 | -67.13928 | 37983 ft | 468 kts | 339° |
| 2026-04-28 03:14 | 11.44693 | -67.16062 | 37985 ft | 468 kts | 339° |
| 2026-04-28 03:15 | 11.50865 | -67.18213 | 37987 ft | 469 kts | 339° |
| 2026-04-28 03:15 | 11.57053 | -67.20370 | 37989 ft | 469 kts | 339° |
| 2026-04-28 03:16 | 11.63230 | -67.22525 | 37988 ft | 469 kts | 339° |
| 2026-04-28 03:16 | 11.69396 | -67.24677 | 37985 ft | 469 kts | 339° |
| 2026-04-28 03:17 | 11.75535 | -67.26820 | 37985 ft | 469 kts | 339° |
| 2026-04-28 03:17 | 11.84793 | -67.30054 | 37985 ft | 468 kts | 339° |
| 2026-04-28 03:18 | 11.90922 | -67.32197 | 37989 ft | 468 kts | 338° |
| 2026-04-28 03:18 | 11.97099 | -67.34357 | 37991 ft | 468 kts | 338° |
| 2026-04-28 03:19 | 12.03256 | -67.36511 | 37989 ft | 468 kts | 338° |
| 2026-04-28 03:19 | 12.09416 | -67.38668 | 37988 ft | 467 kts | 338° |
| 2026-04-28 03:20 | 12.15540 | -67.40812 | 37988 ft | 467 kts | 338° |
| 2026-04-28 03:20 | 12.21677 | -67.42962 | 37990 ft | 467 kts | 338° |
| 2026-04-28 03:21 | 12.27823 | -67.45117 | 37986 ft | 466 kts | 338° |
| 2026-04-28 03:21 | 12.33966 | -67.47272 | 37986 ft | 466 kts | 338° |
| 2026-04-28 03:22 | 12.40085 | -67.49419 | 37989 ft | 466 kts | 338° |
| 2026-04-28 03:22 | 12.45198 | -67.51214 | 37989 ft | 466 kts | 338° |
| 2026-04-28 03:23 | 12.51336 | -67.53370 | 37992 ft | 466 kts | 338° |
| 2026-04-28 03:23 | 12.57448 | -67.55517 | 37992 ft | 466 kts | 338° |
| 2026-04-28 03:24 | 12.63590 | -67.57676 | 37990 ft | 467 kts | 338° |
| 2026-04-28 03:24 | 12.69728 | -67.59836 | 37993 ft | 467 kts | 338° |
| 2026-04-28 03:25 | 12.75883 | -67.62001 | 37992 ft | 467 kts | 338° |
| 2026-04-28 03:25 | 12.82039 | -67.64169 | 37993 ft | 467 kts | 338° |
| 2026-04-28 03:26 | 12.88086 | -67.66548 | 37982 ft | 460 kts | 324° |
| 2026-04-28 03:26 | 12.93391 | -67.70209 | 37993 ft | 460 kts | 322° |
| 2026-04-28 03:27 | 12.98684 | -67.73921 | 37996 ft | 460 kts | 321° |
| 2026-04-28 03:27 | 13.03921 | -67.77630 | 37998 ft | 460 kts | 321° |
| 2026-04-28 03:28 | 13.09538 | -67.80782 | 38007 ft | 466 kts | 338° |
| 2026-04-28 03:28 | 13.15675 | -67.82969 | 37999 ft | 469 kts | 337° |
| 2026-04-28 03:29 | 13.21853 | -67.85125 | 37999 ft | 469 kts | 338° |
| 2026-04-28 03:29 | 13.28030 | -67.87262 | 38002 ft | 468 kts | 338° |
| 2026-04-28 03:30 | 13.34227 | -67.89391 | 38003 ft | 468 kts | 338° |
| 2026-04-28 03:30 | 13.40421 | -67.91520 | 38003 ft | 469 kts | 338° |
| 2026-04-28 03:31 | 13.46598 | -67.93645 | 38008 ft | 468 kts | 338° |
| 2026-04-28 03:31 | 13.52745 | -67.95760 | 38002 ft | 469 kts | 338° |
| 2026-04-28 03:32 | 13.58936 | -67.97892 | 38002 ft | 469 kts | 338° |
| 2026-04-28 03:32 | 13.65132 | -68.00026 | 38000 ft | 469 kts | 338° |
| 2026-04-28 03:33 | 13.71334 | -68.02164 | 38011 ft | 469 kts | 338° |
| 2026-04-28 03:33 | 13.77482 | -68.04284 | 38014 ft | 469 kts | 337° |
| 2026-04-28 03:34 | 13.83677 | -68.06422 | 38010 ft | 469 kts | 337° |
| 2026-04-28 03:34 | 13.89876 | -68.08562 | 38013 ft | 469 kts | 337° |
| 2026-04-28 03:35 | 13.96068 | -68.10701 | 38007 ft | 469 kts | 337° |
| 2026-04-28 03:35 | 14.02256 | -68.12840 | 38013 ft | 468 kts | 337° |
| 2026-04-28 03:36 | 14.08403 | -68.14966 | 38015 ft | 468 kts | 337° |
| 2026-04-28 03:36 | 14.14559 | -68.17096 | 38009 ft | 467 kts | 337° |
| 2026-04-28 03:37 | 14.20790 | -68.19041 | 38015 ft | 469 kts | 344° |
| 2026-04-28 03:37 | 14.27191 | -68.20390 | 38018 ft | 470 kts | 344° |
| 2026-04-28 03:38 | 14.33606 | -68.21732 | 38021 ft | 469 kts | 344° |
| 2026-04-28 03:38 | 14.39997 | -68.23065 | 38025 ft | 469 kts | 344° |
| 2026-04-28 03:39 | 14.46362 | -68.24389 | 38017 ft | 468 kts | 344° |
| 2026-04-28 03:39 | 14.52767 | -68.25719 | 38009 ft | 468 kts | 344° |
| 2026-04-28 03:40 | 14.59154 | -68.27045 | 38018 ft | 468 kts | 344° |
| 2026-04-28 03:40 | 14.65543 | -68.28372 | 38015 ft | 468 kts | 344° |
| 2026-04-28 03:41 | 14.71887 | -68.29691 | 38020 ft | 468 kts | 344° |
| 2026-04-28 03:41 | 14.78262 | -68.31016 | 38019 ft | 467 kts | 344° |
| 2026-04-28 03:42 | 14.84649 | -68.32345 | 38020 ft | 467 kts | 344° |
| 2026-04-28 03:42 | 14.91020 | -68.33672 | 38023 ft | 467 kts | 344° |
| 2026-04-28 03:43 | 14.97403 | -68.35001 | 38024 ft | 467 kts | 344° |
| 2026-04-28 03:43 | 15.03735 | -68.36321 | 38023 ft | 467 kts | 344° |
| 2026-04-28 03:44 | 15.10108 | -68.37650 | 38022 ft | 467 kts | 344° |
| 2026-04-28 03:44 | 15.16472 | -68.38978 | 38026 ft | 466 kts | 343° |
| 2026-04-28 03:45 | 15.22838 | -68.40316 | 38024 ft | 466 kts | 343° |
| 2026-04-28 03:45 | 15.29189 | -68.41657 | 38027 ft | 466 kts | 343° |
| 2026-04-28 03:46 | 15.35560 | -68.43003 | 38025 ft | 465 kts | 343° |
| 2026-04-28 03:46 | 15.41858 | -68.44335 | 38032 ft | 465 kts | 343° |
| 2026-04-28 03:47 | 15.48207 | -68.45678 | 38032 ft | 465 kts | 343° |
| 2026-04-28 03:47 | 15.54561 | -68.47023 | 38032 ft | 464 kts | 343° |
| 2026-04-28 03:48 | 15.60854 | -68.48356 | 38031 ft | 464 kts | 343° |
| 2026-04-28 03:48 | 15.67226 | -68.49707 | 38035 ft | 464 kts | 343° |
| 2026-04-28 03:49 | 15.70345 | -68.50368 | 37914 ft | 467 kts | 343° |
| 2026-04-28 03:49 | 15.73525 | -68.51042 | 37631 ft | 467 kts | 343° |
| 2026-04-28 03:49 | 15.76728 | -68.51722 | 37372 ft | 467 kts | 343° |
| 2026-04-28 03:49 | 15.79894 | -68.52394 | 37110 ft | 466 kts | 343° |
| 2026-04-28 03:50 | 15.83092 | -68.53073 | 36844 ft | 464 kts | 343° |
| 2026-04-28 03:50 | 15.86250 | -68.53743 | 36594 ft | 463 kts | 343° |
| 2026-04-28 03:50 | 15.89364 | -68.54405 | 36347 ft | 461 kts | 343° |
| 2026-04-28 03:50 | 15.92537 | -68.55079 | 36098 ft | 460 kts | 343° |
| 2026-04-28 03:51 | 15.95637 | -68.55738 | 35854 ft | 458 kts | 343° |
| 2026-04-28 03:51 | 15.98756 | -68.56398 | 35608 ft | 457 kts | 345° |
| 2026-04-28 03:51 | 16.01932 | -68.56647 | 35336 ft | 462 kts | 358° |
| 2026-04-28 03:51 | 16.05156 | -68.56559 | 35112 ft | 462 kts | 356° |
| 2026-04-28 03:52 | 16.08377 | -68.56527 | 34866 ft | 461 kts | 356° |
| 2026-04-28 03:52 | 16.11569 | -68.56482 | 34628 ft | 460 kts | 356° |
| 2026-04-28 03:52 | 16.14773 | -68.56433 | 34388 ft | 458 kts | 357° |
| 2026-04-28 03:52 | 16.17957 | -68.56383 | 34156 ft | 457 kts | 357° |
| 2026-04-28 03:53 | 16.21148 | -68.56333 | 33901 ft | 456 kts | 357° |
| 2026-04-28 03:53 | 16.24318 | -68.56283 | 33634 ft | 455 kts | 357° |
| 2026-04-28 03:53 | 16.27476 | -68.56233 | 33372 ft | 453 kts | 357° |
| 2026-04-28 03:53 | 16.30586 | -68.56184 | 33117 ft | 452 kts | 357° |
| 2026-04-28 03:54 | 16.33724 | -68.56135 | 32851 ft | 450 kts | 357° |
| 2026-04-28 03:54 | 16.36851 | -68.56085 | 32591 ft | 449 kts | 357° |
| 2026-04-28 03:54 | 16.39971 | -68.56036 | 32336 ft | 447 kts | 357° |
| 2026-04-28 03:54 | 16.43071 | -68.55987 | 32081 ft | 446 kts | 357° |
| 2026-04-28 03:55 | 16.46177 | -68.55938 | 31827 ft | 444 kts | 357° |
| 2026-04-28 03:55 | 16.49264 | -68.55889 | 31575 ft | 443 kts | 357° |
| 2026-04-28 03:55 | 16.52339 | -68.55840 | 31329 ft | 441 kts | 357° |
| 2026-04-28 03:55 | 16.55412 | -68.55792 | 31079 ft | 440 kts | 357° |
| 2026-04-28 03:56 | 16.58469 | -68.55743 | 30835 ft | 438 kts | 357° |
| 2026-04-28 03:56 | 16.61513 | -68.55695 | 30595 ft | 437 kts | 357° |
| 2026-04-28 03:56 | 16.64513 | -68.55647 | 30356 ft | 435 kts | 357° |
| 2026-04-28 03:56 | 16.67568 | -68.55599 | 30115 ft | 433 kts | 357° |
| 2026-04-28 03:57 | 16.70549 | -68.55551 | 29842 ft | 432 kts | 357° |
| 2026-04-28 03:57 | 16.73539 | -68.55504 | 29560 ft | 430 kts | 357° |
| 2026-04-28 03:57 | 16.76526 | -68.55457 | 29286 ft | 427 kts | 357° |
| 2026-04-28 03:57 | 16.79493 | -68.55409 | 29013 ft | 425 kts | 357° |
| 2026-04-28 03:58 | 16.82451 | -68.55362 | 28741 ft | 423 kts | 357° |
| 2026-04-28 03:58 | 16.85380 | -68.55316 | 28472 ft | 421 kts | 357° |
| 2026-04-28 03:58 | 16.88313 | -68.55269 | 28205 ft | 419 kts | 357° |
| 2026-04-28 03:58 | 16.91221 | -68.55223 | 27942 ft | 417 kts | 357° |
| 2026-04-28 03:59 | 16.94122 | -68.55177 | 27681 ft | 415 kts | 357° |
| 2026-04-28 03:59 | 16.97002 | -68.55131 | 27427 ft | 413 kts | 357° |
| 2026-04-28 03:59 | 16.99840 | -68.55086 | 27170 ft | 411 kts | 357° |
| 2026-04-28 03:59 | 17.02691 | -68.55040 | 26645 ft | 411 kts | 357° |
| 2026-04-28 04:00 | 17.05567 | -68.54994 | 26126 ft | 411 kts | 358° |
| 2026-04-28 04:00 | 17.08422 | -68.54949 | 25650 ft | 410 kts | 358° |
| 2026-04-28 04:00 | 17.11265 | -68.54904 | 25197 ft | 408 kts | 358° |
| 2026-04-28 04:00 | 17.14102 | -68.54858 | 24739 ft | 407 kts | 358° |
| 2026-04-28 04:01 | 17.16922 | -68.54814 | 24282 ft | 406 kts | 358° |
| 2026-04-28 04:01 | 17.19735 | -68.54769 | 23825 ft | 405 kts | 358° |
| 2026-04-28 04:01 | 17.22559 | -68.54724 | 23312 ft | 404 kts | 358° |
| 2026-04-28 04:01 | 17.25371 | -68.54679 | 22814 ft | 402 kts | 359° |
| 2026-04-28 04:02 | 17.28167 | -68.54634 | 22346 ft | 399 kts | 359° |
| 2026-04-28 04:02 | 17.30905 | -68.54591 | 21909 ft | 396 kts | 359° |
| 2026-04-28 04:02 | 17.33655 | -68.54547 | 21464 ft | 393 kts | 359° |
| 2026-04-28 04:02 | 17.36384 | -68.54503 | 21018 ft | 390 kts | 359° |
| 2026-04-28 04:03 | 17.39085 | -68.54460 | 20581 ft | 388 kts | 359° |
| 2026-04-28 04:03 | 17.41776 | -68.54417 | 20153 ft | 386 kts | 359° |
| 2026-04-28 04:03 | 17.44461 | -68.54374 | 19703 ft | 383 kts | 359° |
| 2026-04-28 04:03 | 17.47085 | -68.54332 | 19276 ft | 382 kts | 359° |
| 2026-04-28 04:04 | 17.49737 | -68.54290 | 18841 ft | 380 kts | 359° |
| 2026-04-28 04:04 | 17.52415 | -68.54247 | 18395 ft | 378 kts | 359° |
| 2026-04-28 04:04 | 17.55004 | -68.54206 | 17914 ft | 376 kts | 359° |
| 2026-04-28 04:04 | 17.57615 | -68.54164 | 17456 ft | 374 kts | 359° |
| 2026-04-28 04:05 | 17.60213 | -68.54123 | 17018 ft | 370 kts | 359° |
| 2026-04-28 04:05 | 17.62776 | -68.54081 | 16590 ft | 367 kts | 360° |
| 2026-04-28 04:05 | 17.65306 | -68.54041 | 16167 ft | 365 kts | 360° |
| 2026-04-28 04:05 | 17.67860 | -68.54000 | 15715 ft | 363 kts | 360° |
| 2026-04-28 04:06 | 17.70373 | -68.53959 | 15254 ft | 361 kts | 360° |
| 2026-04-28 04:06 | 17.72883 | -68.53919 | 14829 ft | 359 kts | 360° |
| 2026-04-28 04:06 | 17.75373 | -68.53879 | 14388 ft | 357 kts | 360° |
| 2026-04-28 04:06 | 17.77853 | -68.53839 | 13966 ft | 355 kts | 360° |
| 2026-04-28 04:07 | 17.80286 | -68.53800 | 13508 ft | 353 kts | 360° |
| 2026-04-28 04:07 | 17.82739 | -68.53761 | 13055 ft | 350 kts | 0° |
| 2026-04-28 04:07 | 17.85173 | -68.53722 | 12615 ft | 347 kts | 0° |
| 2026-04-28 04:07 | 17.87579 | -68.53683 | 12210 ft | 344 kts | 0° |
| 2026-04-28 04:08 | 17.89969 | -68.53645 | 11794 ft | 342 kts | 0° |
| 2026-04-28 04:08 | 17.92336 | -68.53607 | 11382 ft | 339 kts | 0° |
| 2026-04-28 04:08 | 17.94700 | -68.53569 | 10965 ft | 337 kts | 0° |
| 2026-04-28 04:08 | 17.97038 | -68.53531 | 10554 ft | 335 kts | 1° |
| 2026-04-28 04:09 | 17.99295 | -68.53494 | 10324 ft | 320 kts | 1° |
| 2026-04-28 04:09 | 18.01490 | -68.53459 | 9946 ft | 312 kts | 1° |
| 2026-04-28 04:09 | 18.03652 | -68.53425 | 9425 ft | 309 kts | 1° |
| 2026-04-28 04:09 | 18.05783 | -68.53391 | 8910 ft | 305 kts | 1° |
| 2026-04-28 04:10 | 18.07901 | -68.53357 | 8421 ft | 302 kts | 1° |
| 2026-04-28 04:10 | 18.09292 | -68.53334 | 8179 ft | 301 kts | 1° |
| 2026-04-28 04:10 | 18.11358 | -68.53301 | 7992 ft | 291 kts | 1° |
| 2026-04-28 04:10 | 18.13350 | -68.53269 | 7879 ft | 280 kts | 1° |
| 2026-04-28 04:11 | 18.15283 | -68.53238 | 7635 ft | 276 kts | 1° |
| 2026-04-28 04:11 | 18.17215 | -68.53207 | 7284 ft | 280 kts | 1° |
| 2026-04-28 04:11 | 18.19173 | -68.53175 | 6947 ft | 281 kts | 1° |
| 2026-04-28 04:11 | 18.21129 | -68.53143 | 6607 ft | 281 kts | 1° |
| 2026-04-28 04:12 | 18.23081 | -68.53111 | 6248 ft | 280 kts | 1° |
| 2026-04-28 04:12 | 18.25028 | -68.53080 | 5880 ft | 279 kts | 1° |
| 2026-04-28 04:12 | 18.26935 | -68.53050 | 5534 ft | 278 kts | 2° |
| 2026-04-28 04:12 | 18.28876 | -68.53019 | 5182 ft | 276 kts | 1° |
| 2026-04-28 04:13 | 18.30790 | -68.52987 | 4840 ft | 275 kts | 2° |
| 2026-04-28 04:13 | 18.32699 | -68.52956 | 4490 ft | 273 kts | 2° |
| 2026-04-28 04:13 | 18.34598 | -68.52926 | 4144 ft | 272 kts | 2° |
| 2026-04-28 04:13 | 18.36486 | -68.52896 | 3858 ft | 268 kts | 2° |
| 2026-04-28 04:14 | 18.38304 | -68.52866 | 3720 ft | 258 kts | 2° |
| 2026-04-28 04:14 | 18.40073 | -68.52838 | 3567 ft | 250 kts | 2° |
| 2026-04-28 04:14 | 18.41786 | -68.52810 | 3419 ft | 242 kts | 2° |
| 2026-04-28 04:14 | 18.43444 | -68.52784 | 3290 ft | 233 kts | 2° |
| 2026-04-28 04:15 | 18.45007 | -68.52951 | 3273 ft | 221 kts | 346° |
| 2026-04-28 04:15 | 18.46435 | -68.53381 | 3247 ft | 206 kts | 345° |
| 2026-04-28 04:15 | 18.49142 | -68.54197 | 3098 ft | 201 kts | 345° |
| 2026-04-28 04:16 | 18.50480 | -68.54557 | 2958 ft | 197 kts | 357° |
| 2026-04-28 04:16 | 18.51755 | -68.54272 | 2796 ft | 182 kts | 34° |
| 2026-04-28 04:16 | 18.52193 | -68.53918 | 2747 ft | 173 kts | 49° |
| 2026-04-28 04:16 | 18.52457 | -68.53584 | 2711 ft | 170 kts | 58° |
| 2026-04-28 04:17 | 18.52942 | -68.52479 | 2574 ft | 165 kts | 72° |
| 2026-04-28 04:17 | 18.53318 | -68.51340 | 2414 ft | 164 kts | 73° |
| 2026-04-28 04:17 | 18.53676 | -68.50200 | 2237 ft | 164 kts | 73° |
| 2026-04-28 04:17 | 18.54021 | -68.49064 | 2044 ft | 163 kts | 74° |
| 2026-04-28 04:18 | 18.54361 | -68.47922 | 1856 ft | 162 kts | 74° |
| 2026-04-28 04:18 | 18.54691 | -68.46792 | 1704 ft | 158 kts | 74° |
| 2026-04-28 04:18 | 18.54994 | -68.45696 | 1449 ft | 152 kts | 75° |
| 2026-04-28 04:18 | 18.55301 | -68.44645 | 1376 ft | 151 kts | 75° |
| 2026-04-28 04:19 | 18.55561 | -68.43579 | 1226 ft | 151 kts | 78° |
| 2026-04-28 04:19 | 18.55873 | -68.42523 | 1044 ft | 150 kts | 72° |
| 2026-04-28 04:19 | 18.56176 | -68.41491 | 787 ft | 144 kts | 77° |
| 2026-04-28 04:19 | 18.56413 | -68.40502 | 497 ft | 137 kts | 71° |
| 2026-04-28 04:20 | 18.56693 | -68.39542 | 330 ft | 140 kts | 76° |
| 2026-04-28 04:20 | 18.56961 | -68.38550 | 156 ft | 142 kts | 75° |
| 2026-04-28 04:20 | 18.57230 | -68.37589 | 53 ft | 125 kts | 73° |
| 2026-04-28 04:20 | 18.57424 | -68.36873 | 51 ft | 79 kts | 74° |
| 2026-04-28 04:21 | 18.57550 | -68.36416 | 50 ft | 57 kts | 73° |
| 2026-04-28 04:21 | 18.57601 | -68.36174 | 49 ft | 28 kts | 85° |
| 2026-04-28 04:21 | 18.57589 | -68.36017 | 53 ft | 21 kts | 103° |
| 2026-04-28 04:21 | 18.57555 | -68.35914 | 53 ft | 13 kts | 120° |
| 2026-04-28 04:22 | 18.57486 | -68.35847 | 53 ft | 14 kts | 165° |
| 2026-04-28 04:22 | 18.57398 | -68.35833 | 52 ft | 12 kts | 177° |
| 2026-04-28 04:22 | 18.57319 | -68.35829 | 51 ft | 10 kts | 177° |
| 2026-04-28 04:22 | 18.57253 | -68.35825 | 53 ft | 8 kts | 178° |
| 2026-04-28 04:23 | 18.57179 | -68.35821 | 53 ft | 14 kts | 176° |
| 2026-04-28 04:23 | 18.57061 | -68.35815 | 50 ft | 19 kts | 177° |
| 2026-04-28 04:23 | 18.56975 | -68.35844 | 52 ft | 12 kts | 247° |
| 2026-04-28 04:23 | 18.56963 | -68.35926 | 49 ft | 10 kts | 266° |
| 2026-04-28 04:24 | 18.56957 | -68.36017 | 53 ft | 16 kts | 265° |
| 2026-04-28 04:24 | 18.56946 | -68.36139 | 53 ft | 16 kts | 264° |
| 2026-04-28 04:24 | 18.56936 | -68.36255 | 47 ft | 16 kts | 265° |
| 2026-04-28 04:24 | 18.56926 | -68.36373 | 53 ft | 16 kts | 264° |
| 2026-04-28 04:25 | 18.56915 | -68.36496 | 53 ft | 17 kts | 265° |
| 2026-04-28 04:25 | 18.56905 | -68.36620 | 51 ft | 13 kts | 264° |
| 2026-04-28 04:25 | 18.56897 | -68.36704 | 53 ft | 11 kts | 264° |
| 2026-04-28 04:25 | 18.56863 | -68.36755 | 53 ft | 8 kts | 194° |
| 2026-04-28 04:26 | 18.56796 | -68.36752 | 49 ft | 11 kts | 174° |
| 2026-04-28 04:26 | 18.56710 | -68.36750 | 54 ft | 14 kts | 182° |
| 2026-04-28 04:26 | 18.56602 | -68.36755 | 51 ft | 16 kts | 179° |
| 2026-04-28 04:26 | 18.56510 | -68.36753 | 52 ft | 12 kts | 176° |
| 2026-04-28 04:27 | 18.56502 | -68.36752 | 46 ft | 2 kts | 176° |
| 2026-04-28 04:27 | 18.56469 | -68.36750 | 51 ft | 7 kts | 176° |
| 2026-04-28 04:27 | 18.56407 | -68.36744 | 52 ft | 10 kts | 174° |
| 2026-04-28 04:27 | 18.56374 | -68.36740 | 50 ft | 1 kts | 175° |
| 2026-04-28 04:28 | 18.56354 | -68.36742 | 50 ft | 5 kts | 193° |
| 2026-04-28 04:28 | 18.56332 | -68.36771 | 49 ft | 5 kts | 254° |
| 2026-04-28 04:28 | 18.56330 | -68.36794 | 49 ft | 2 kts | 264° |
| 2026-04-28 04:28 | 18.56329 | -68.36800 | 51 ft | 0 kts | 265° |